sensor_id;sensor_type;location;lat;lon;timestamp;noise_LAeq;noise_LA_min;noise_LA_max;noise_LA01;noise_LA95
60503;Laerm;51448;51.660;5.824;2023-06-04T00:00:35;45.64;29.82;57.21;;
60503;Laerm;51448;51.660;5.824;2023-06-04T00:03:23;45.64;29.95;57.01;;
60503;Laerm;51448;51.660;5.824;2023-06-04T00:06:11;44.86;29.61;57.06;;
60503;Laerm;51448;51.660;5.824;2023-06-04T00:08:59;46.37;29.78;58.55;;
60503;Laerm;51448;51.660;5.824;2023-06-04T00:11:47;45.87;29.94;57.41;;
60503;Laerm;51448;51.660;5.824;2023-06-04T00:14:35;46.37;29.55;66.73;;
60503;Laerm;51448;51.660;5.824;2023-06-04T00:17:23;46.06;29.63;62.42;;
60503;Laerm;51448;51.660;5.824;2023-06-04T00:20:11;46.05;29.62;57.39;;
60503;Laerm;51448;51.660;5.824;2023-06-04T00:22:59;44.76;29.77;61.37;;
60503;Laerm;51448;51.660;5.824;2023-06-04T00:25:47;45.60;29.55;64.79;;
60503;Laerm;51448;51.660;5.824;2023-06-04T00:28:35;44.71;28.72;56.84;;
60503;Laerm;51448;51.660;5.824;2023-06-04T00:31:22;46.00;29.48;60.02;;
60503;Laerm;51448;51.660;5.824;2023-06-04T00:34:11;44.88;29.84;57.19;;
60503;Laerm;51448;51.660;5.824;2023-06-04T00:36:59;44.72;29.76;56.85;;
60503;Laerm;51448;51.660;5.824;2023-06-04T00:39:49;44.69;29.76;56.37;;
60503;Laerm;51448;51.660;5.824;2023-06-04T00:42:37;45.14;29.09;62.40;;
60503;Laerm;51448;51.660;5.824;2023-06-04T00:45:25;45.72;30.58;64.71;;
60503;Laerm;51448;51.660;5.824;2023-06-04T00:48:13;44.83;30.10;56.19;;
60503;Laerm;51448;51.660;5.824;2023-06-04T00:51:01;45.00;29.96;59.97;;
60503;Laerm;51448;51.660;5.824;2023-06-04T00:53:49;45.24;30.66;56.79;;
60503;Laerm;51448;51.660;5.824;2023-06-04T00:56:38;45.01;30.67;58.25;;
60503;Laerm;51448;51.660;5.824;2023-06-04T00:59:27;45.63;30.08;59.14;;
60503;Laerm;51448;51.660;5.824;2023-06-04T01:02:21;44.78;29.69;61.36;;
60503;Laerm;51448;51.660;5.824;2023-06-04T01:08:50;44.44;29.10;56.47;;
60503;Laerm;51448;51.660;5.824;2023-06-04T01:11:41;44.60;29.48;56.22;;
60503;Laerm;51448;51.660;5.824;2023-06-04T01:14:29;44.77;29.22;56.08;;
60503;Laerm;51448;51.660;5.824;2023-06-04T01:17:25;45.13;29.17;56.69;;
60503;Laerm;51448;51.660;5.824;2023-06-04T01:20:40;44.98;29.47;57.45;;
60503;Laerm;51448;51.660;5.824;2023-06-04T01:23:49;45.79;29.56;59.42;;
60503;Laerm;51448;51.660;5.824;2023-06-04T01:26:47;44.05;29.09;56.41;;
60503;Laerm;51448;51.660;5.824;2023-06-04T01:29:36;44.33;28.59;56.15;;
60503;Laerm;51448;51.660;5.824;2023-06-04T01:32:25;44.88;29.21;56.98;;
60503;Laerm;51448;51.660;5.824;2023-06-04T01:35:13;45.27;29.16;56.71;;
60503;Laerm;51448;51.660;5.824;2023-06-04T01:38:01;44.94;28.72;56.55;;
60503;Laerm;51448;51.660;5.824;2023-06-04T01:40:49;45.63;29.49;59.12;;
60503;Laerm;51448;51.660;5.824;2023-06-04T01:43:38;44.63;29.05;56.24;;
60503;Laerm;51448;51.660;5.824;2023-06-04T01:46:26;44.46;29.12;56.42;;
60503;Laerm;51448;51.660;5.824;2023-06-04T01:49:14;45.26;28.97;56.57;;
60503;Laerm;51448;51.660;5.824;2023-06-04T01:52:02;44.93;29.37;56.36;;
60503;Laerm;51448;51.660;5.824;2023-06-04T01:54:49;45.34;29.27;61.99;;
60503;Laerm;51448;51.660;5.824;2023-06-04T01:57:43;45.28;29.19;59.20;;
60503;Laerm;51448;51.660;5.824;2023-06-04T02:00:31;46.06;29.15;56.64;;
60503;Laerm;51448;51.660;5.824;2023-06-04T02:03:20;47.83;28.83;71.90;;
60503;Laerm;51448;51.660;5.824;2023-06-04T02:06:08;44.67;28.83;56.43;;
60503;Laerm;51448;51.660;5.824;2023-06-04T02:08:56;44.78;29.12;56.72;;
60503;Laerm;51448;51.660;5.824;2023-06-04T02:11:44;44.58;29.43;56.12;;
60503;Laerm;51448;51.660;5.824;2023-06-04T02:14:32;44.93;29.47;56.59;;
60503;Laerm;51448;51.660;5.824;2023-06-04T02:17:20;44.94;29.57;56.37;;
60503;Laerm;51448;51.660;5.824;2023-06-04T02:20:08;45.30;29.80;56.70;;
60503;Laerm;51448;51.660;5.824;2023-06-04T02:22:57;45.59;29.75;57.45;;
60503;Laerm;51448;51.660;5.824;2023-06-04T02:25:47;46.36;29.74;64.10;;
60503;Laerm;51448;51.660;5.824;2023-06-04T02:28:35;46.39;29.99;57.92;;
60503;Laerm;51448;51.660;5.824;2023-06-04T02:31:24;46.45;30.53;57.85;;
60503;Laerm;51448;51.660;5.824;2023-06-04T02:34:12;46.78;30.67;56.94;;
60503;Laerm;51448;51.660;5.824;2023-06-04T02:37:01;47.64;31.18;58.26;;
60503;Laerm;51448;51.660;5.824;2023-06-04T02:39:49;47.17;30.98;58.59;;
60503;Laerm;51448;51.660;5.824;2023-06-04T02:42:36;48.45;31.21;60.27;;
60503;Laerm;51448;51.660;5.824;2023-06-04T02:45:25;48.47;30.73;60.31;;
60503;Laerm;51448;51.660;5.824;2023-06-04T02:48:13;48.93;30.69;62.31;;
60503;Laerm;51448;51.660;5.824;2023-06-04T02:51:01;47.55;30.81;59.10;;
60503;Laerm;51448;51.660;5.824;2023-06-04T02:53:49;46.29;32.19;56.64;;
60503;Laerm;51448;51.660;5.824;2023-06-04T02:56:37;45.90;30.85;56.65;;
60503;Laerm;51448;51.660;5.824;2023-06-04T02:59:25;45.95;30.75;56.67;;
60503;Laerm;51448;51.660;5.824;2023-06-04T03:02:13;46.43;30.96;56.56;;
60503;Laerm;51448;51.660;5.824;2023-06-04T03:05:03;53.53;31.79;83.13;;
60503;Laerm;51448;51.660;5.824;2023-06-04T03:07:51;46.65;32.40;64.92;;
60503;Laerm;51448;51.660;5.824;2023-06-04T03:10:39;46.69;31.34;62.07;;
60503;Laerm;51448;51.660;5.824;2023-06-04T03:13:27;46.91;32.00;59.10;;
60503;Laerm;51448;51.660;5.824;2023-06-04T03:16:15;46.59;30.70;56.94;;
60503;Laerm;51448;51.660;5.824;2023-06-04T03:19:03;46.66;31.27;56.78;;
60503;Laerm;51448;51.660;5.824;2023-06-04T03:21:51;47.52;31.54;65.37;;
60503;Laerm;51448;51.660;5.824;2023-06-04T03:24:41;47.83;31.45;58.84;;
60503;Laerm;51448;51.660;5.824;2023-06-04T03:27:32;47.88;31.34;58.85;;
60503;Laerm;51448;51.660;5.824;2023-06-04T03:30:20;46.43;31.42;57.47;;
60503;Laerm;51448;51.660;5.824;2023-06-04T03:33:20;46.33;30.96;56.95;;
60503;Laerm;51448;51.660;5.824;2023-06-04T03:36:08;48.31;30.66;69.78;;
60503;Laerm;51448;51.660;5.824;2023-06-04T03:38:56;55.00;30.38;72.03;;
60503;Laerm;51448;51.660;5.824;2023-06-04T03:41:44;52.97;30.78;65.87;;
60503;Laerm;51448;51.660;5.824;2023-06-04T03:44:32;47.89;30.52;65.51;;
60503;Laerm;51448;51.660;5.824;2023-06-04T03:47:20;54.70;30.65;80.96;;
60503;Laerm;51448;51.660;5.824;2023-06-04T03:50:08;49.83;31.36;66.33;;
60503;Laerm;51448;51.660;5.824;2023-06-04T03:52:57;48.27;31.13;62.51;;
60503;Laerm;51448;51.660;5.824;2023-06-04T03:55:45;47.58;31.24;60.89;;
60503;Laerm;51448;51.660;5.824;2023-06-04T03:58:35;48.52;30.79;62.38;;
60503;Laerm;51448;51.660;5.824;2023-06-04T04:01:24;48.25;31.35;60.41;;
60503;Laerm;51448;51.660;5.824;2023-06-04T04:04:12;49.37;30.89;62.84;;
60503;Laerm;51448;51.660;5.824;2023-06-04T04:07:00;50.15;31.37;66.93;;
60503;Laerm;51448;51.660;5.824;2023-06-04T04:09:48;48.42;31.06;61.64;;
60503;Laerm;51448;51.660;5.824;2023-06-04T04:12:36;47.84;30.92;59.57;;
60503;Laerm;51448;51.660;5.824;2023-06-04T04:15:24;48.73;31.19;59.51;;
60503;Laerm;51448;51.660;5.824;2023-06-04T04:18:13;50.10;31.39;60.73;;
60503;Laerm;51448;51.660;5.824;2023-06-04T04:21:03;49.37;30.48;66.20;;
60503;Laerm;51448;51.660;5.824;2023-06-04T04:23:52;48.33;30.55;62.36;;
60503;Laerm;51448;51.660;5.824;2023-06-04T04:26:40;48.77;30.22;61.05;;
60503;Laerm;51448;51.660;5.824;2023-06-04T04:29:31;49.09;30.61;63.16;;
60503;Laerm;51448;51.660;5.824;2023-06-04T04:32:23;50.75;30.72;64.33;;
60503;Laerm;51448;51.660;5.824;2023-06-04T04:35:10;48.80;30.60;60.86;;
60503;Laerm;51448;51.660;5.824;2023-06-04T04:38:00;50.56;31.22;68.50;;
60503;Laerm;51448;51.660;5.824;2023-06-04T04:40:55;50.12;30.38;71.65;;
60503;Laerm;51448;51.660;5.824;2023-06-04T04:43:46;48.32;31.25;61.20;;
60503;Laerm;51448;51.660;5.824;2023-06-04T04:46:40;47.72;31.55;62.16;;
60503;Laerm;51448;51.660;5.824;2023-06-04T04:49:28;50.23;30.96;61.80;;
60503;Laerm;51448;51.660;5.824;2023-06-04T04:52:16;47.22;30.60;57.82;;
60503;Laerm;51448;51.660;5.824;2023-06-04T04:55:05;48.59;30.49;71.91;;
60503;Laerm;51448;51.660;5.824;2023-06-04T04:57:54;47.58;30.30;58.82;;
60503;Laerm;51448;51.660;5.824;2023-06-04T05:00:44;48.76;31.82;60.19;;
60503;Laerm;51448;51.660;5.824;2023-06-04T05:03:32;50.53;30.47;73.59;;
60503;Laerm;51448;51.660;5.824;2023-06-04T05:06:20;50.46;30.30;65.41;;
60503;Laerm;51448;51.660;5.824;2023-06-04T05:09:08;47.38;29.51;59.63;;
60503;Laerm;51448;51.660;5.824;2023-06-04T05:11:57;47.16;30.72;57.19;;
60503;Laerm;51448;51.660;5.824;2023-06-04T05:14:45;48.41;30.19;60.31;;
60503;Laerm;51448;51.660;5.824;2023-06-04T05:17:35;48.62;30.68;62.27;;
60503;Laerm;51448;51.660;5.824;2023-06-04T05:20:28;47.43;29.54;59.11;;
60503;Laerm;51448;51.660;5.824;2023-06-04T05:23:17;51.55;30.41;63.39;;
60503;Laerm;51448;51.660;5.824;2023-06-04T05:26:08;50.71;30.62;68.58;;
60503;Laerm;51448;51.660;5.824;2023-06-04T05:28:56;48.28;31.79;58.19;;
60503;Laerm;51448;51.660;5.824;2023-06-04T05:31:48;51.30;30.37;69.86;;
60503;Laerm;51448;51.660;5.824;2023-06-04T05:34:39;47.38;29.40;67.72;;
60503;Laerm;51448;51.660;5.824;2023-06-04T05:37:28;46.30;30.28;67.88;;
60503;Laerm;51448;51.660;5.824;2023-06-04T05:40:17;45.79;30.40;56.70;;
60503;Laerm;51448;51.660;5.824;2023-06-04T05:43:05;48.04;32.04;61.32;;
60503;Laerm;51448;51.660;5.824;2023-06-04T05:45:55;49.14;30.63;70.92;;
60503;Laerm;51448;51.660;5.824;2023-06-04T05:48:44;49.79;31.03;71.41;;
60503;Laerm;51448;51.660;5.824;2023-06-04T05:51:32;50.33;31.84;63.56;;
60503;Laerm;51448;51.660;5.824;2023-06-04T05:54:20;48.44;29.97;72.01;;
60503;Laerm;51448;51.660;5.824;2023-06-04T05:57:09;51.37;29.63;74.80;;
60503;Laerm;51448;51.660;5.824;2023-06-04T05:59:57;51.12;30.71;72.52;;
60503;Laerm;51448;51.660;5.824;2023-06-04T06:02:45;49.25;30.55;66.12;;
60503;Laerm;51448;51.660;5.824;2023-06-04T06:05:49;50.48;29.86;66.81;;
60503;Laerm;51448;51.660;5.824;2023-06-04T06:08:37;49.92;30.75;68.46;;
60503;Laerm;51448;51.660;5.824;2023-06-04T06:11:25;46.21;30.36;59.18;;
60503;Laerm;51448;51.660;5.824;2023-06-04T06:14:15;45.80;30.17;61.12;;
60503;Laerm;51448;51.660;5.824;2023-06-04T06:17:03;46.85;30.14;59.15;;
60503;Laerm;51448;51.660;5.824;2023-06-04T06:19:52;48.56;31.21;60.38;;
60503;Laerm;51448;51.660;5.824;2023-06-04T06:22:40;46.59;29.54;64.47;;
60503;Laerm;51448;51.660;5.824;2023-06-04T06:25:28;47.63;30.58;63.18;;
60503;Laerm;51448;51.660;5.824;2023-06-04T06:28:23;46.38;30.33;57.36;;
60503;Laerm;51448;51.660;5.824;2023-06-04T06:31:13;48.24;30.46;66.31;;
60503;Laerm;51448;51.660;5.824;2023-06-04T06:34:00;47.42;30.68;62.64;;
60503;Laerm;51448;51.660;5.824;2023-06-04T06:36:48;48.48;30.24;63.50;;
60503;Laerm;51448;51.660;5.824;2023-06-04T06:39:37;48.52;30.13;63.89;;
60503;Laerm;51448;51.660;5.824;2023-06-04T06:42:25;48.37;31.01;64.96;;
60503;Laerm;51448;51.660;5.824;2023-06-04T06:45:14;49.05;30.27;65.70;;
60503;Laerm;51448;51.660;5.824;2023-06-04T06:48:04;49.59;30.82;62.82;;
60503;Laerm;51448;51.660;5.824;2023-06-04T06:50:53;47.00;33.41;62.48;;
60503;Laerm;51448;51.660;5.824;2023-06-04T06:53:41;46.29;31.93;62.06;;
60503;Laerm;51448;51.660;5.824;2023-06-04T06:56:29;44.45;30.31;57.45;;
60503;Laerm;51448;51.660;5.824;2023-06-04T06:59:18;47.59;30.46;65.52;;
60503;Laerm;51448;51.660;5.824;2023-06-04T07:02:06;54.18;32.11;76.54;;
60503;Laerm;51448;51.660;5.824;2023-06-04T07:04:54;49.40;30.44;64.48;;
60503;Laerm;51448;51.660;5.824;2023-06-04T07:07:42;48.97;31.45;63.35;;
60503;Laerm;51448;51.660;5.824;2023-06-04T07:10:31;47.97;30.91;62.71;;
60503;Laerm;51448;51.660;5.824;2023-06-04T07:13:19;49.20;31.19;63.30;;
60503;Laerm;51448;51.660;5.824;2023-06-04T07:16:07;49.52;31.63;64.62;;
60503;Laerm;51448;51.660;5.824;2023-06-04T07:18:55;47.76;31.62;63.16;;
60503;Laerm;51448;51.660;5.824;2023-06-04T07:21:43;47.31;32.10;61.07;;
60503;Laerm;51448;51.660;5.824;2023-06-04T07:24:31;46.32;32.43;61.90;;
60503;Laerm;51448;51.660;5.824;2023-06-04T07:27:19;48.11;31.73;62.08;;
60503;Laerm;51448;51.660;5.824;2023-06-04T07:30:08;45.51;31.65;61.03;;
60503;Laerm;51448;51.660;5.824;2023-06-04T07:32:57;47.84;31.57;61.44;;
60503;Laerm;51448;51.660;5.824;2023-06-04T07:35:45;49.29;31.48;70.52;;
60503;Laerm;51448;51.660;5.824;2023-06-04T07:38:33;47.22;32.23;66.19;;
60503;Laerm;51448;51.660;5.824;2023-06-04T07:41:20;47.93;31.45;60.36;;
60503;Laerm;51448;51.660;5.824;2023-06-04T07:44:09;47.39;31.41;68.26;;
60503;Laerm;51448;51.660;5.824;2023-06-04T07:46:57;45.05;31.35;60.05;;
60503;Laerm;51448;51.660;5.824;2023-06-04T07:49:44;47.10;31.29;62.75;;
60503;Laerm;51448;51.660;5.824;2023-06-04T07:52:51;48.10;31.44;63.34;;
60503;Laerm;51448;51.660;5.824;2023-06-04T07:55:39;48.78;30.68;64.24;;
60503;Laerm;51448;51.660;5.824;2023-06-04T07:58:27;48.29;31.78;67.59;;
60503;Laerm;51448;51.660;5.824;2023-06-04T08:01:15;48.48;30.64;67.81;;
60503;Laerm;51448;51.660;5.824;2023-06-04T08:04:03;51.01;33.44;73.77;;
60503;Laerm;51448;51.660;5.824;2023-06-04T08:06:51;48.83;32.47;69.73;;
60503;Laerm;51448;51.660;5.824;2023-06-04T08:09:39;47.94;30.41;66.29;;
60503;Laerm;51448;51.660;5.824;2023-06-04T08:12:27;45.92;30.76;66.67;;
60503;Laerm;51448;51.660;5.824;2023-06-04T08:15:15;46.70;31.31;63.27;;
60503;Laerm;51448;51.660;5.824;2023-06-04T08:18:03;45.55;30.74;59.54;;
60503;Laerm;51448;51.660;5.824;2023-06-04T08:20:51;48.51;31.93;63.60;;
60503;Laerm;51448;51.660;5.824;2023-06-04T08:23:39;45.89;31.66;58.58;;
60503;Laerm;51448;51.660;5.824;2023-06-04T08:26:27;50.94;31.28;76.49;;
60503;Laerm;51448;51.660;5.824;2023-06-04T08:29:14;47.48;31.39;63.91;;
60503;Laerm;51448;51.660;5.824;2023-06-04T08:32:03;49.48;33.53;72.16;;
60503;Laerm;51448;51.660;5.824;2023-06-04T08:34:51;45.72;31.85;61.32;;
60503;Laerm;51448;51.660;5.824;2023-06-04T08:37:39;50.32;33.18;72.71;;
60503;Laerm;51448;51.660;5.824;2023-06-04T08:40:27;47.73;32.34;66.94;;
60503;Laerm;51448;51.660;5.824;2023-06-04T08:43:16;47.45;31.79;61.89;;
60503;Laerm;51448;51.660;5.824;2023-06-04T08:46:05;45.13;30.91;65.20;;
60503;Laerm;51448;51.660;5.824;2023-06-04T08:49:00;42.75;30.68;56.32;;
60503;Laerm;51448;51.660;5.824;2023-06-04T08:51:51;45.65;32.38;62.75;;
60503;Laerm;51448;51.660;5.824;2023-06-04T08:54:39;49.49;31.35;72.18;;
60503;Laerm;51448;51.660;5.824;2023-06-04T08:57:27;49.46;30.82;75.19;;
60503;Laerm;51448;51.660;5.824;2023-06-04T09:00:18;48.14;30.87;64.28;;
60503;Laerm;51448;51.660;5.824;2023-06-04T09:03:07;50.47;32.16;73.33;;
60503;Laerm;51448;51.660;5.824;2023-06-04T09:05:57;51.31;32.47;70.89;;
60503;Laerm;51448;51.660;5.824;2023-06-04T09:08:45;49.16;32.56;73.14;;
60503;Laerm;51448;51.660;5.824;2023-06-04T09:11:56;52.55;30.81;74.51;;
60503;Laerm;51448;51.660;5.824;2023-06-04T09:14:44;50.20;31.78;72.31;;
60503;Laerm;51448;51.660;5.824;2023-06-04T09:17:32;47.87;33.85;63.85;;
60503;Laerm;51448;51.660;5.824;2023-06-04T09:20:24;48.03;32.27;70.30;;
60503;Laerm;51448;51.660;5.824;2023-06-04T09:23:14;51.47;31.44;70.56;;
60503;Laerm;51448;51.660;5.824;2023-06-04T09:26:09;48.60;30.38;71.25;;
60503;Laerm;51448;51.660;5.824;2023-06-04T09:28:57;50.81;32.48;74.36;;
60503;Laerm;51448;51.660;5.824;2023-06-04T09:31:47;52.15;31.42;76.80;;
60503;Laerm;51448;51.660;5.824;2023-06-04T09:34:35;51.41;31.92;76.44;;
60503;Laerm;51448;51.660;5.824;2023-06-04T09:37:24;47.83;33.41;66.48;;
60503;Laerm;51448;51.660;5.824;2023-06-04T09:40:12;48.34;33.40;63.85;;
60503;Laerm;51448;51.660;5.824;2023-06-04T09:43:00;52.82;33.35;74.68;;
60503;Laerm;51448;51.660;5.824;2023-06-04T09:45:48;46.95;31.41;68.44;;
60503;Laerm;51448;51.660;5.824;2023-06-04T09:48:36;47.93;32.01;67.11;;
60503;Laerm;51448;51.660;5.824;2023-06-04T09:51:24;53.95;32.80;76.72;;
60503;Laerm;51448;51.660;5.824;2023-06-04T09:54:12;53.91;31.80;74.12;;
60503;Laerm;51448;51.660;5.824;2023-06-04T09:57:00;58.12;31.37;77.23;;
60503;Laerm;51448;51.660;5.824;2023-06-04T09:59:53;51.82;31.82;74.37;;
60503;Laerm;51448;51.660;5.824;2023-06-04T10:02:44;48.70;31.95;69.14;;
60503;Laerm;51448;51.660;5.824;2023-06-04T10:05:34;58.86;35.71;79.52;;
60503;Laerm;51448;51.660;5.824;2023-06-04T10:08:23;50.17;33.83;74.24;;
60503;Laerm;51448;51.660;5.824;2023-06-04T10:11:17;48.85;32.67;71.29;;
60503;Laerm;51448;51.660;5.824;2023-06-04T10:14:35;49.55;32.32;69.66;;
60503;Laerm;51448;51.660;5.824;2023-06-04T10:17:28;48.41;30.87;69.12;;
60503;Laerm;51448;51.660;5.824;2023-06-04T10:20:17;58.57;33.87;80.78;;
60503;Laerm;51448;51.660;5.824;2023-06-04T10:23:06;46.23;32.63;62.69;;
60503;Laerm;51448;51.660;5.824;2023-06-04T10:25:56;60.98;33.90;83.68;;
60503;Laerm;51448;51.660;5.824;2023-06-04T10:28:44;57.70;34.20;78.88;;
60503;Laerm;51448;51.660;5.824;2023-06-04T10:31:32;46.35;31.99;68.87;;
60503;Laerm;51448;51.660;5.824;2023-06-04T10:34:20;51.75;32.26;74.78;;
60503;Laerm;51448;51.660;5.824;2023-06-04T10:37:24;56.81;32.95;77.21;;
60503;Laerm;51448;51.660;5.824;2023-06-04T10:40:13;56.19;32.53;79.11;;
60503;Laerm;51448;51.660;5.824;2023-06-04T10:43:15;57.88;36.61;81.16;;
60503;Laerm;51448;51.660;5.824;2023-06-04T10:46:13;55.58;34.34;82.09;;
60503;Laerm;51448;51.660;5.824;2023-06-04T10:49:02;48.00;32.31;70.63;;
60503;Laerm;51448;51.660;5.824;2023-06-04T10:51:50;49.92;35.41;67.08;;
60503;Laerm;51448;51.660;5.824;2023-06-04T10:54:38;50.53;35.40;69.51;;
60503;Laerm;51448;51.660;5.824;2023-06-04T10:57:26;57.76;36.75;83.71;;
60503;Laerm;51448;51.660;5.824;2023-06-04T11:00:14;62.88;33.60;83.60;;
60503;Laerm;51448;51.660;5.824;2023-06-04T11:03:11;49.17;34.74;69.37;;
60503;Laerm;51448;51.660;5.824;2023-06-04T11:05:59;45.65;34.32;57.83;;
60503;Laerm;51448;51.660;5.824;2023-06-04T11:08:48;52.09;31.74;71.07;;
60503;Laerm;51448;51.660;5.824;2023-06-04T11:11:36;49.76;32.67;66.25;;
60503;Laerm;51448;51.660;5.824;2023-06-04T11:14:24;48.01;31.11;69.67;;
60503;Laerm;51448;51.660;5.824;2023-06-04T11:17:14;50.05;34.70;66.00;;
60503;Laerm;51448;51.660;5.824;2023-06-04T11:20:02;47.29;30.89;69.14;;
60503;Laerm;51448;51.660;5.824;2023-06-04T11:22:58;49.81;35.92;67.54;;
60503;Laerm;51448;51.660;5.824;2023-06-04T11:25:53;48.35;32.13;64.67;;
60503;Laerm;51448;51.660;5.824;2023-06-04T11:28:41;51.40;31.56;79.14;;
60503;Laerm;51448;51.660;5.824;2023-06-04T11:31:46;50.05;33.40;71.44;;
60503;Laerm;51448;51.660;5.824;2023-06-04T11:34:40;47.31;34.59;71.14;;
60503;Laerm;51448;51.660;5.824;2023-06-04T11:37:58;47.50;32.07;67.32;;
60503;Laerm;51448;51.660;5.824;2023-06-04T11:41:02;50.90;31.38;76.48;;
60503;Laerm;51448;51.660;5.824;2023-06-04T11:43:53;61.99;33.68;83.52;;
60503;Laerm;51448;51.660;5.824;2023-06-04T11:46:44;50.41;33.61;73.96;;
60503;Laerm;51448;51.660;5.824;2023-06-04T11:49:34;52.12;34.38;70.77;;
60503;Laerm;51448;51.660;5.824;2023-06-04T11:52:23;46.93;32.98;63.49;;
60503;Laerm;51448;51.660;5.824;2023-06-04T11:55:12;46.71;32.23;71.37;;
60503;Laerm;51448;51.660;5.824;2023-06-04T11:58:01;49.56;33.75;73.18;;
60503;Laerm;51448;51.660;5.824;2023-06-04T12:00:49;50.67;33.86;67.98;;
60503;Laerm;51448;51.660;5.824;2023-06-04T12:03:40;47.27;33.85;63.19;;
60503;Laerm;51448;51.660;5.824;2023-06-04T12:06:28;50.55;37.05;74.57;;
60503;Laerm;51448;51.660;5.824;2023-06-04T12:09:21;50.79;34.92;77.20;;
60503;Laerm;51448;51.660;5.824;2023-06-04T12:12:09;45.31;32.92;62.03;;
60503;Laerm;51448;51.660;5.824;2023-06-04T12:14:58;46.00;34.23;63.80;;
60503;Laerm;51448;51.660;5.824;2023-06-04T12:17:53;47.41;33.93;71.65;;
60503;Laerm;51448;51.660;5.824;2023-06-04T12:20:42;45.97;32.57;61.97;;
60503;Laerm;51448;51.660;5.824;2023-06-04T12:23:30;47.27;33.16;58.67;;
60503;Laerm;51448;51.660;5.824;2023-06-04T12:26:22;44.69;32.80;57.15;;
60503;Laerm;51448;51.660;5.824;2023-06-04T12:29:17;47.15;33.20;61.02;;
60503;Laerm;51448;51.660;5.824;2023-06-04T12:32:09;56.02;35.58;78.93;;
60503;Laerm;51448;51.660;5.824;2023-06-04T12:35:00;54.87;34.12;79.95;;
60503;Laerm;51448;51.660;5.824;2023-06-04T12:37:48;52.23;33.46;76.04;;
60503;Laerm;51448;51.660;5.824;2023-06-04T12:40:36;46.83;33.50;72.03;;
60503;Laerm;51448;51.660;5.824;2023-06-04T12:43:24;46.24;33.41;68.81;;
60503;Laerm;51448;51.660;5.824;2023-06-04T12:46:13;46.87;31.62;64.43;;
60503;Laerm;51448;51.660;5.824;2023-06-04T12:49:01;46.28;32.91;60.82;;
60503;Laerm;51448;51.660;5.824;2023-06-04T12:51:49;52.97;33.34;74.57;;
60503;Laerm;51448;51.660;5.824;2023-06-04T12:54:37;50.41;34.36;71.43;;
60503;Laerm;51448;51.660;5.824;2023-06-04T12:57:25;53.75;35.40;76.77;;
60503;Laerm;51448;51.660;5.824;2023-06-04T13:00:13;52.17;35.59;72.28;;
60503;Laerm;51448;51.660;5.824;2023-06-04T13:03:02;48.86;32.61;72.38;;
60503;Laerm;51448;51.660;5.824;2023-06-04T13:05:50;47.00;32.29;68.06;;
60503;Laerm;51448;51.660;5.824;2023-06-04T13:08:39;55.19;34.48;77.07;;
60503;Laerm;51448;51.660;5.824;2023-06-04T13:11:27;57.59;36.11;83.95;;
60503;Laerm;51448;51.660;5.824;2023-06-04T13:14:15;50.89;33.04;70.75;;
60503;Laerm;51448;51.660;5.824;2023-06-04T13:17:03;55.73;33.44;76.00;;
60503;Laerm;51448;51.660;5.824;2023-06-04T13:20:09;51.27;32.25;73.24;;
60503;Laerm;51448;51.660;5.824;2023-06-04T13:22:57;48.41;34.16;70.80;;
60503;Laerm;51448;51.660;5.824;2023-06-04T13:25:45;46.61;33.84;70.63;;
60503;Laerm;51448;51.660;5.824;2023-06-04T13:28:33;51.79;34.24;71.30;;
60503;Laerm;51448;51.660;5.824;2023-06-04T13:31:21;50.14;34.66;65.67;;
60503;Laerm;51448;51.660;5.824;2023-06-04T13:34:09;48.08;33.18;69.12;;
60503;Laerm;51448;51.660;5.824;2023-06-04T13:37:14;53.03;32.40;76.27;;
60503;Laerm;51448;51.660;5.824;2023-06-04T13:40:02;44.83;32.86;67.20;;
60503;Laerm;51448;51.660;5.824;2023-06-04T13:42:50;48.19;33.42;69.16;;
60503;Laerm;51448;51.660;5.824;2023-06-04T13:45:39;43.90;31.80;56.39;;
60503;Laerm;51448;51.660;5.824;2023-06-04T13:48:28;44.74;32.47;57.23;;
60503;Laerm;51448;51.660;5.824;2023-06-04T13:51:15;57.01;35.03;84.88;;
60503;Laerm;51448;51.660;5.824;2023-06-04T13:54:03;49.40;32.52;69.54;;
60503;Laerm;51448;51.660;5.824;2023-06-04T13:56:51;47.88;33.67;67.70;;
60503;Laerm;51448;51.660;5.824;2023-06-04T13:59:39;50.51;38.36;69.24;;
60503;Laerm;51448;51.660;5.824;2023-06-04T14:02:27;51.10;36.49;72.43;;
60503;Laerm;51448;51.660;5.824;2023-06-04T14:05:15;47.22;34.71;67.78;;
60503;Laerm;51448;51.660;5.824;2023-06-04T14:08:03;48.24;32.70;63.94;;
60503;Laerm;51448;51.660;5.824;2023-06-04T14:10:52;48.78;34.04;72.11;;
60503;Laerm;51448;51.660;5.824;2023-06-04T14:13:39;50.80;34.81;69.93;;
60503;Laerm;51448;51.660;5.824;2023-06-04T14:16:28;51.17;34.24;81.81;;
60503;Laerm;51448;51.660;5.824;2023-06-04T14:19:16;49.35;33.01;72.99;;
60503;Laerm;51448;51.660;5.824;2023-06-04T14:22:04;56.98;35.76;76.82;;
60503;Laerm;51448;51.660;5.824;2023-06-04T14:24:52;49.85;33.09;77.35;;
60503;Laerm;51448;51.660;5.824;2023-06-04T14:27:40;50.92;33.61;73.44;;
60503;Laerm;51448;51.660;5.824;2023-06-04T14:30:28;44.78;33.72;60.83;;
60503;Laerm;51448;51.660;5.824;2023-06-04T14:33:16;47.92;33.66;59.40;;
60503;Laerm;51448;51.660;5.824;2023-06-04T14:36:04;47.32;33.92;67.04;;
60503;Laerm;51448;51.660;5.824;2023-06-04T14:38:51;47.09;33.24;65.29;;
60503;Laerm;51448;51.660;5.824;2023-06-04T14:41:39;46.34;32.43;65.95;;
60503;Laerm;51448;51.660;5.824;2023-06-04T14:44:27;44.91;32.53;63.43;;
60503;Laerm;51448;51.660;5.824;2023-06-04T14:47:15;48.86;33.02;66.92;;
60503;Laerm;51448;51.660;5.824;2023-06-04T14:50:03;48.45;33.74;70.85;;
60503;Laerm;51448;51.660;5.824;2023-06-04T14:52:51;46.05;33.36;63.99;;
60503;Laerm;51448;51.660;5.824;2023-06-04T14:55:39;46.31;32.07;65.62;;
60503;Laerm;51448;51.660;5.824;2023-06-04T14:58:28;48.36;33.36;67.90;;
60503;Laerm;51448;51.660;5.824;2023-06-04T15:01:16;49.26;33.78;68.65;;
60503;Laerm;51448;51.660;5.824;2023-06-04T15:04:04;44.88;33.20;64.41;;
60503;Laerm;51448;51.660;5.824;2023-06-04T15:06:52;46.19;34.69;59.91;;
60503;Laerm;51448;51.660;5.824;2023-06-04T15:09:40;49.95;33.91;72.50;;
60503;Laerm;51448;51.660;5.824;2023-06-04T15:12:28;44.82;32.82;69.43;;
60503;Laerm;51448;51.660;5.824;2023-06-04T15:15:16;48.30;33.81;63.96;;
60503;Laerm;51448;51.660;5.824;2023-06-04T15:18:04;52.04;33.93;76.77;;
60503;Laerm;51448;51.660;5.824;2023-06-04T15:20:54;47.38;33.43;68.62;;
60503;Laerm;51448;51.660;5.824;2023-06-04T15:23:42;46.27;32.82;60.56;;
60503;Laerm;51448;51.660;5.824;2023-06-04T15:26:32;49.92;34.97;73.32;;
60503;Laerm;51448;51.660;5.824;2023-06-04T15:29:19;43.74;33.71;58.04;;
60503;Laerm;51448;51.660;5.824;2023-06-04T15:32:07;45.84;35.18;61.75;;
60503;Laerm;51448;51.660;5.824;2023-06-04T15:34:55;50.15;35.44;77.11;;
60503;Laerm;51448;51.660;5.824;2023-06-04T15:37:43;55.10;36.50;82.02;;
60503;Laerm;51448;51.660;5.824;2023-06-04T15:40:31;50.75;34.06;74.40;;
60503;Laerm;51448;51.660;5.824;2023-06-04T15:43:18;48.72;34.21;70.91;;
60503;Laerm;51448;51.660;5.824;2023-06-04T15:46:06;53.55;34.13;77.22;;
60503;Laerm;51448;51.660;5.824;2023-06-04T15:48:54;53.75;34.51;76.20;;
60503;Laerm;51448;51.660;5.824;2023-06-04T15:51:43;61.01;36.19;84.39;;